Flight Track Log - Related Links

Times and Time Zones

All times are in EDT time to prevent confusion due to time zone crossing. See the N9624M flight status page for this flight to view local times or setup timezone preferences in your user account.

Time Position Orientation Groundspeed Altitude Reporting Facility
EDT Latitude Longitude Course Direction KTS MPH feet Rate Location/Type
Thu 01:22:00 PM 40.0599 -121.8176 North  Level FlightAware Approximate
Thu 01:23:00 PM 40.1058 -121.8102 North  Level FlightAware Approximate
Thu 01:24:00 PM 40.1517 -121.8025 North  Level FlightAware Approximate
Thu 01:25:00 PM 40.1935 -121.7819 North  Level FlightAware Approximate
Thu 01:26:00 PM 40.2395 -121.7754 North  Level FlightAware Approximate
Thu 01:27:00 PM 40.2855 -121.7689 North  Level FlightAware Approximate
Thu 01:27:42 PM 40.2550 -122.1272 345° North 158 182 7,300  Level Oakland Center
Thu 01:28:00 PM 40.3316 -121.7624 North  Level FlightAware Approximate
Thu 01:29:00 PM 40.3776 -121.7559 North  Level FlightAware Approximate
Thu 01:29:00 PM 40.3143 -122.1136 10° North  Level Estimated
Thu 01:30:00 PM 40.4236 -121.7494 North  Level FlightAware Approximate
Thu 01:31:00 PM 40.4696 -121.7428 North  Level FlightAware Approximate
Thu 01:31:59 PM 40.4356 -122.1558 10° North 160 184 9,300  Level Oakland Center
Thu 01:33:01 PM 40.4778 -122.1472 North 154 177 9,700 293 Climbing Oakland Center
Thu 01:34:02 PM 40.5242 -122.1469 360° North 154 177 9,900 293 Climbing Oakland Center
Thu 01:36:00 PM 40.6334 -122.0400 10° North  Level Estimated
Thu 01:36:00 PM 40.6132 -122.1212 12° North  Level FlightAware Approximate
Thu 01:37:00 PM 40.6790 -122.0294 10° North  Level Estimated
Thu 01:37:07 PM 40.6553 -122.1044 12° North 157 181 10,900  Level Oakland Center
Thu 01:38:08 PM 40.7000 -122.0922 12° North 160 184 10,900  Level Oakland Center
Thu 01:39:09 PM 40.7539 -122.0775 12° North 163 188 10,900  Level Oakland Center
Thu 01:40:11 PM 40.7992 -122.0633 13° North 165 190 10,900  Level Oakland Center
Thu 01:41:12 PM 40.8447 -122.0508 12° North 166 191 10,900  Level Oakland Center
Thu 01:42:14 PM 40.8903 -122.0411 North 166 191 10,900 49 Level Oakland Center
Thu 01:43:15 PM 40.9336 -122.0311 10° North 163 188 11,000  Climbing Oakland Center
Thu 01:44:16 PM 40.9769 -122.0144 16° North 161 185 10,900 -49 Descending Oakland Center
Thu 01:45:18 PM 41.0203 -121.9947 19° North 162 186 10,900  Level Oakland Center
Thu 01:46:19 PM 41.0639 -121.9769 17° North 163 188 10,900  Level Oakland Center
Thu 01:47:21 PM 41.1086 -121.9642 12° North 164 189 10,900 110 Level Oakland Center
Thu 01:48:08 PM 41.1458 -121.9578 North 166 191 11,100 110 Climbing Seattle Center
Thu 01:49:10 PM 41.2017 -121.9503 North 167 192 11,100  Level Seattle Center
Thu 01:50:11 PM 41.2483 -121.9453 North 169 194 11,100  Level Seattle Center
Thu 01:51:12 PM 41.2967 -121.9400 North 171 197 11,100  Level Seattle Center
Thu 01:52:13 PM 41.3439 -121.9358 North 171 197 11,100  Level Seattle Center
Thu 01:53:14 PM 41.3919 -121.9306 North 172 198 11,100  Level Seattle Center
Thu 01:54:15 PM 41.4392 -121.9222 North 172 198 11,100  Level Seattle Center
Thu 01:55:16 PM 41.4831 -121.9100 12° North 167 192 11,100  Level Seattle Center
Thu 01:56:17 PM 41.5281 -121.8967 13° North 165 190 11,100  Level Seattle Center
Thu 01:57:18 PM 41.5731 -121.8847 11° North 165 190 11,100  Level Seattle Center
Thu 01:58:19 PM 41.6175 -121.8733 11° North 164 189 11,100  Level Seattle Center
Thu 01:59:21 PM 41.6628 -121.8622 10° North 165 190 11,100  Level Seattle Center
Thu 02:00:22 PM 41.7072 -121.8497 12° North 164 189 11,100  Level Seattle Center
Thu 02:01:23 PM 41.7622 -121.8353 11° North 166 191 11,100  Level Seattle Center
Thu 02:02:24 PM 41.8078 -121.8231 11° North 167 192 11,100  Level Seattle Center
Thu 02:03:25 PM 41.8531 -121.8100 12° North 167 192 11,100  Level Seattle Center
Thu 02:04:26 PM 41.8986 -121.7978 11° North 167 192 11,100  Level Seattle Center
Thu 02:05:27 PM 41.9450 -121.7864 10° North 169 194 11,100  Level Seattle Center
Thu 02:06:28 PM 41.9911 -121.7747 11° North 169 194 11,100  Level Seattle Center
Thu 02:07:29 PM 42.0364 -121.7622 12° North 169 194 11,100  Level Seattle Center
Thu 02:08:30 PM 42.0819 -121.7497 12° North 168 193 11,100  Level Seattle Center
Thu 02:09:31 PM 42.1281 -121.7369 12° North 169 194 11,100  Level Seattle Center
Thu 02:10:33 PM 42.1831 -121.7225 11° North 169 194 11,100  Level Seattle Center
Thu 02:11:34 PM 42.2292 -121.7103 11° North 169 194 11,100  Level Seattle Center
Thu 02:12:35 PM 42.2753 -121.6975 12° North 169 194 11,100  Level Seattle Center
Thu 02:13:36 PM 42.3214 -121.6850 11° North 169 194 11,100  Level Seattle Center
Thu 02:14:37 PM 42.3675 -121.6722 12° North 170 196 11,100  Level Seattle Center
Thu 02:15:38 PM 42.4125 -121.6606 11° North 168 193 11,100  Level Seattle Center
Thu 02:16:39 PM 42.4586 -121.6472 12° North 168 193 11,100  Level Seattle Center
Thu 02:17:41 PM 42.5053 -121.6347 11° North 169 194 11,100  Level Seattle Center
Thu 02:18:42 PM 42.5511 -121.6225 11° North 169 194 11,100  Level Seattle Center
Thu 02:19:43 PM 42.5972 -121.6103 11° North 169 194 11,100  Level Seattle Center
Thu 02:20:44 PM 42.6528 -121.5944 12° North 170 196 11,100  Level Seattle Center
Thu 02:21:45 PM 42.6994 -121.5822 11° North 170 196 11,100  Level Seattle Center
Thu 02:22:46 PM 42.7458 -121.5697 11° North 170 196 11,100  Level Seattle Center
Thu 02:23:47 PM 42.7931 -121.5575 11° North 171 197 11,100  Level Seattle Center
Thu 02:24:49 PM 42.8400 -121.5456 11° North 173 199 11,100  Level Seattle Center
Thu 02:25:50 PM 42.8886 -121.5411 North 174 200 11,100  Level Seattle Center
Thu 02:26:51 PM 42.9369 -121.5358 North 174 200 11,100  Level Seattle Center
Thu 02:27:52 PM 42.9853 -121.5306 North 174 200 11,100  Level Seattle Center
Thu 02:28:53 PM 43.0336 -121.5233 North 174 200 11,100  Level Seattle Center
Thu 02:29:55 PM 43.0819 -121.5206 North 175 201 11,100  Level Seattle Center
Thu 02:30:56 PM 43.1289 -121.5153 North 171 197 11,100  Level Seattle Center
Thu 02:31:57 PM 43.1858 -121.5108 North 171 197 11,100  Level Seattle Center
Thu 02:32:58 PM 43.2339 -121.5053 North 172 198 11,100 49 Level Seattle Center
Thu 02:33:59 PM 43.2808 -121.4961 North 171 197 11,200  Climbing Seattle Center
Thu 02:35:01 PM 43.3283 -121.4914 North 171 197 11,100 -49 Descending Seattle Center
Thu 02:36:02 PM 43.3756 -121.4942 358° North 169 194 11,100  Level Seattle Center
Thu 02:37:03 PM 43.4239 -121.4964 358° North 173 199 11,100  Level Seattle Center
Thu 02:38:04 PM 43.4711 -121.4922 North 172 198 11,100  Level Seattle Center
Thu 02:39:06 PM 43.5189 -121.4850 North 172 198 11,100 -49 Level Seattle Center
Thu 02:40:07 PM 43.5686 -121.4733 10° North 171 197 11,000 -49 Descending Seattle Center
Thu 02:41:08 PM 43.6139 -121.4617 11° North 166 191 11,000 -197 Level Seattle Center
Thu 02:42:09 PM 43.6603 -121.4489 11° North 171 197 10,600 -443 Descending Seattle Center
Thu 02:43:10 PM 43.7072 -121.4264 19° North 177 204 10,100 -390 Descending Seattle Center
Thu 02:44:12 PM 43.7528 -121.3983 24° Northeast 177 204 9,800 -439 Descending Seattle Center
Thu 02:45:13 PM 43.8086 -121.3739 18° North 176 203 9,200 -492 Descending Seattle Center
Thu 02:46:14 PM 43.8533 -121.3506 21° North 173 199 8,800 -443 Descending Seattle Center
Thu 02:47:15 PM 43.8972 -121.3294 19° North 170 196 8,300 -541 Descending Seattle Center
Thu 02:48:16 PM 43.9297 -121.2875 43° Northeast 164 189 7,700 -585 Descending Seattle Center
Thu 02:49:18 PM 43.9617 -121.2458 43° Northeast 161 185 7,100 -537 Descending Seattle Center
Thu 02:50:19 PM 43.9889 -121.2033 48° Northeast 154 177 6,600 -393 Descending Seattle Center
Thu 02:51:20 PM 44.0189 -121.1675 41° Northeast 148 170 6,300 -344 Descending Seattle Center
Thu 02:52:21 PM 44.0519 -121.1483 23° Northeast 137 158 5,900 -541 Descending Seattle Center
Thu 02:53:22 PM 44.0833 -121.1344 18° North 127 146 5,200 -541 Descending Seattle Center
Thu 02:54:23 PM 44.1139 -121.1247 13° North 119 137 4,800 -393 Descending Seattle Center

Login

Don't have an account? Register now (free) for customized features, flight alerts, and more!